Terminal Aerodrome Forecast
Issued by NWS

Home | Current Version | Previous Version | Text Only | Print | Product List | Glossary On
Versions: 1 2 3 4 5 6 7 8 9 10 11 12 13 14 15 16 17
000
FTUS41 KBTV 271932 AAA
TAFRUT
TAF AMD
KRUT 271932Z 2720/2818 20009KT P6SM VCSH SCT050 BKN200
     FM272100 18006KT P6SM VCSH BKN070
     FM280000 14005KT P6SM FEW070 SCT200
     FM281200 28004KT P6SM SCT090 BKN160
      AMD LTD TO CLD VIS AND WIND=

USA.gov is the U.S. government's official web portal to all federal, state and local government web resources and services.